Danail Tonev

Olheiro - Ludogorets
9 Dez 2028
Sábado
Processo

Personalidade

Adaptabilidade (18) Ambição (12) Controvérsia (6) Lealdade (3) Pressão (19) Profissionalismo (6) Espírito Esportivo (5) Temperamento (10)

Perfil

Estilo de Treinamento Democrático
Licença Nacional A
Determinação 12
Gestão de Pessoas 6
Motivação 6
Disciplina 9
Satisfação no Trabalho
100%
Fadiga
0%
Função Olheiro
Salário 62.3K p/s
Contrato 14.03.2030

Desempenho

Comportamento Bom
Eficácia do Treinamento
43%
Desenvolvimento do Jogador
35%
Prevenção de Lesões
25%
Implementação Tática
40%

Eventos Recentes

Avaliou um jogador agora
Participou de uma reunião de recrutamento agora
Recomendou um alvo de transferência agora
Recomendou um alvo de transferência agora
Recomendou um alvo de transferência agora
Recomendou um alvo de transferência agora
Recomendou um alvo de transferência agora
Recomendou um alvo de transferência agora

Monitorando agora

64
Jogador Clube Status Habilidade Confiança Observado Última observação Último voto
Federico Pérez Astana Ativo 109 / 111 40% 1 07.12.2028 -
Mateo Seoane Gimnasia La Plata Ativo 134 / 125 40% 1 07.12.2028 -
James McConnell Grimsby Town Ativo 139 / 135 40% 1 07.12.2028 -
Lautaro Vargas Unión de Santa Fe Ativo 132 / 133 40% 1 06.12.2028 -
Lucien Mahovo Walsall Ativo 139 / 131 40% 1 06.12.2028 -
Ignacio Perruzzi San Lorenzo Ativo 135 / 134 40% 1 06.12.2028 -
Josh Acheampong Everton Ativo 149 / 156 40% 1 04.12.2028 -
Carlos Baleba Norwich City Ativo 166 / 156 40% 1 04.12.2028 -
Tomás Porra Barracas Central Ativo 111 / 128 40% 1 04.12.2028 -
Luis Caicedo Spartak 1918 Ativo 103 / 103 42% 1 / 1m 15.11.2028 -
Kenny Tete Fulham Ativo 142 / 143 40% 1 03.07.2028 -
Evander Wolverhampton Ativo 157 / 148 40% 1 03.07.2028 -
Giovanni Leoni Lincoln City Ativo 146 / 152 40% 1 03.07.2028 -
Taylor Harwood-Bellis Stockport County Ativo 129 / 133 40% 1 19.06.2028 -
Toby Collyer West Bromwich Albion Ativo 146 / 132 40% 1 19.06.2028 -
Aguibou Camara Levski Perdido 117 / 121 69% 1 02.06.2028 -
Armstrong Oko-Flex Levski Ativo 120 / 121 69% 1 01.06.2028 Aprovar
Harry Wilson Leeds United Ativo 153 / 143 40% 3 31.05.2028 -
Mustapha Sangaré Levski Ativo 117 / 112 69% 1 10.01.2028 Aprovar
Ioannis Pittas CSKA Sofia Ativo 130 / 124 69% 1 02.01.2028 Aprovar
Musa Barrow ES Setif Ativo 150 / 147 40% 2 30.12.2027 -
Reda Khadra Qarabag Ativo 150 / 128 40% 1 30.12.2027 -
Marquinhos Spartak Moscow Ativo 133 / 139 40% 2 21.12.2027 -
Hwang Hee-Chan Wolverhampton Ativo 147 / 139 40% 2 21.12.2027 -
Alex Iwobi Fulham Ativo 157 / 155 40% 2 13.12.2027 -
David Brooks Bournemouth Ativo 137 / 155 40% 3 12.12.2027 -
Jhon Jhon Zenit Ativo 135 / 137 40% 2 09.12.2027 -
Ismaël Bennacer Boca Juniors Ativo 137 / 150 40% 2 03.12.2027 -
Marcus Tavernier Bournemouth Ativo 142 / 142 40% 4 02.12.2027 -
André Wolverhampton Ativo 149 / 142 40% 1 02.12.2027 -
Kasey McAteer Barnsley Ativo 141 / 125 40% 2 28.11.2027 -
Carlos Alcaraz Stoke City Ativo 145 / 149 40% 1 28.11.2027 -
Eddie Nketiah Crystal Palace Ativo 153 / 137 40% 1 27.11.2027 -
Sander Berge Derby County Ativo 151 / 157 40% 1 25.11.2027 -
Jayden Bogle Leeds United Ativo 140 / 148 40% 1 25.11.2027 -
Jorge Padilla Cherno More Ativo 118 / 118 52% 1 / 1m 17.11.2027 -
Dwight McNeil Crystal Palace Ativo 146 / 153 40% 1 15.11.2027 -
Esequiel Barco Spartak Moscow Ativo 142 / 144 40% 1 15.11.2027 -
James McAtee Everton Ativo 137 / 151 40% 1 04.11.2027 -
James Justin Leeds United Ativo 136 / 150 40% 1 30.10.2027 -
Max Bird Birmingham Ativo 142 / 141 40% 1 20.10.2027 -
Ibrahim Sangaré Nottingham Forest Ativo 152 / 145 40% 1 13.10.2027 -
Rico Henry River Plate Ativo 148 / 133 40% 1 10.10.2027 -
Exequiel Palacios Lazio Ativo 156 / 164 40% 1 07.10.2027 -
Zakaria El Ouahdi Hamburger SV Ativo 126 / 135 40% 1 23.08.2027 -
Kevin Zenón Boca Juniors Ativo 124 / 128 40% 1 23.08.2027 -
Bertrand Traoré Sunderland Ativo 151 / 129 40% 1 23.07.2027 -
Sindre Walle Egeli Udinese Ativo 137 / 142 40% 1 23.07.2027 -
Scott Twine Bristol City Ativo 134 / 137 40% 1 19.07.2027 -
Todd Cantwell Blackburn Rovers Ativo 124 / 127 40% 1 19.07.2027 -
Conor Chaplin Leicester City Ativo 125 / 139 40% 1 14.07.2027 -
Cameron Pring Bristol City Ativo 131 / 124 40% 1 14.07.2027 -
Álex Centelles Levski Ativo 133 / 123 40% 1 14.07.2027 -
Nicolas Madsen Queens Park Rangers Ativo 135 / 140 40% 1 05.07.2027 -
Tatsuhiro Sakamoto Coventry City Ativo 136 / 128 40% 1 05.07.2027 -
Giorgi Chakvetadze Watford Ativo 117 / 137 40% 1 28.06.2027 -
Marcelo Allende Mamelodi Sundowns Ativo 132 / 134 40% 1 28.06.2027 -
Andrea Colpani Monza Ativo 122 / 133 40% 1 15.06.2027 -
Dinis Almeida CSKA Sofia Ativo 118 / 121 62% 1 14.06.2027 Aprovar
Léo Pereira CSKA Sofia Perdido 115 / 117 62% 1 04.06.2027 -
Jens Odgaard Juventus Ativo 134 / 131 40% 1 31.05.2027 -
Steven Bergwijn Al-Ittihad Ativo 144 / 150 40% 1 31.05.2027 -
Mauro Rodrigues Botev Plovdiv Ativo 102 / 115 62% 1 04.01.2027 Aprovar
Samuel Kalu Botev Plovdiv Ativo 128 / 122 62% 1 01.01.2027 Aprovar